Time;durP1;ratioP1;P1;durP2;ratioP2;P2;SDS_P1;SDS_P2;PMS_P1;PMS_P2;Temp;Humidity;BMP_temperature;BMP_pressure;BME280_temperature;BME280_humidity;BME280_pressure;Samples;Min_cycle;Max_cycle;Signal;HPM_P1;HPM_P2
2023/06/24 00:02:07;;;;;;;16.65;11.80;;;17.50;99.90;;;;;;5013470;28;20513;-58
2023/06/24 00:04:32;;;;;;;17.10;12.80;;;17.50;99.90;;;;;;4991862;28;20040;-61
2023/06/24 00:07:00;;;;;;;15.15;12.55;;;17.40;99.90;;;;;;5016077;28;20140;-61
2023/06/24 00:09:27;;;;;;;15.82;13.05;;;17.40;99.90;;;;;;4997978;28;20033;-60
2023/06/24 00:11:54;;;;;;;15.10;12.73;;;17.30;99.90;;;;;;5000521;28;20041;-60
2023/06/24 00:14:21;;;;;;;14.65;13.25;;;17.30;99.90;;;;;;5017743;28;20364;-60
2023/06/24 00:16:51;;;;;;;19.80;14.98;;;17.20;99.90;;;;;;5015765;28;20042;-60
2023/06/24 00:19:24;;;;;;;16.02;14.23;;;17.20;99.90;;;;;;5015674;28;20041;-60
2023/06/24 00:21:51;;;;;;;14.82;12.55;;;17.20;99.90;;;;;;4997734;28;20038;-60
2023/06/24 00:24:19;;;;;;;15.73;13.95;;;17.10;99.90;;;;;;5017484;28;20075;-60
2023/06/24 00:26:46;;;;;;;17.38;14.18;;;17.10;99.90;;;;;;5006817;28;20042;-60
2023/06/24 00:29:13;;;;;;;17.02;14.73;;;17.10;99.90;;;;;;5007398;28;20042;-60
2023/06/24 00:31:38;;;;;;;17.40;14.18;;;17.10;99.90;;;;;;5015965;28;20036;-61
2023/06/24 00:34:04;;;;;;;19.42;14.43;;;17.10;99.90;;;;;;4999663;28;20488;-59
2023/06/24 00:36:31;;;;;;;14.88;13.27;;;17.00;99.90;;;;;;5007604;28;20053;-60
2023/06/24 00:39:03;;;;;;;19.13;14.73;;;17.00;99.90;;;;;;4998369;28;20065;-59
2023/06/24 00:41:29;;;;;;;17.00;14.35;;;17.00;99.90;;;;;;4993896;28;20045;-60
2023/06/24 00:43:57;;;;;;;14.95;12.90;;;16.90;99.90;;;;;;4995331;28;20057;-60
2023/06/24 00:46:26;;;;;;;17.40;14.05;;;16.90;99.90;;;;;;4994112;28;20121;-59
2023/06/24 00:48:54;;;;;;;18.13;13.27;;;16.80;99.90;;;;;;5004066;28;20073;-60
2023/06/24 00:51:21;;;;;;;16.77;15.05;;;16.80;99.90;;;;;;4992759;28;20295;-60
2023/06/24 00:53:47;;;;;;;16.27;14.57;;;16.80;99.90;;;;;;5004526;28;20095;-61
2023/06/24 00:56:16;;;;;;;17.00;14.15;;;16.80;99.90;;;;;;5016206;28;20054;-59
2023/06/24 00:58:43;;;;;;;14.07;11.90;;;16.90;99.90;;;;;;4980690;28;20034;-60
2023/06/24 01:01:10;;;;;;;17.25;12.50;;;16.90;99.90;;;;;;4991208;28;20046;-60
2023/06/24 01:03:37;;;;;;;11.73;9.95;;;16.90;99.90;;;;;;5019751;28;20614;-60
2023/06/24 01:06:03;;;;;;;14.73;11.07;;;17.00;99.90;;;;;;5009786;28;20541;-61
2023/06/24 01:08:29;;;;;;;13.40;11.93;;;17.10;99.90;;;;;;5005766;28;20113;-60
2023/06/24 01:10:55;;;;;;;13.20;11.80;;;17.00;99.90;;;;;;5010325;28;20042;-61
2023/06/24 01:13:20;;;;;;;11.85;10.65;;;17.00;99.90;;;;;;5005550;28;20077;-61
2023/06/24 01:15:46;;;;;;;11.43;10.13;;;17.00;99.90;;;;;;4992918;28;20052;-61
2023/06/24 01:18:57;;;;;;;13.23;11.60;;;16.90;99.90;;;;;;5009996;28;20034;-61
2023/06/24 01:21:29;;;;;;;12.18;9.10;;;16.90;99.90;;;;;;4935011;28;20047;-59
2023/06/24 01:24:30;;;;;;;13.52;10.50;;;16.90;99.90;;;;;;4954794;28;20035;-60
2023/06/24 01:27:10;;;;;;;10.45;9.35;;;17.00;99.90;;;;;;4924555;28;20059;-60
2023/06/24 01:29:35;;;;;;;12.00;10.50;;;17.00;99.90;;;;;;5001199;28;20087;-61
2023/06/24 01:32:17;;;;;;;13.27;10.98;;;17.00;99.90;;;;;;5011381;28;20520;-59
2023/06/24 01:35:20;;;;;;;14.20;9.93;;;17.00;99.90;;;;;;5011934;28;20497;-59
2023/06/24 01:37:51;;;;;;;14.48;11.75;;;17.00;99.90;;;;;;5019477;28;20124;-60
2023/06/24 01:40:26;;;;;;;13.20;11.25;;;16.90;99.90;;;;;;5021693;28;20076;-61
2023/06/24 01:42:53;;;;;;;15.93;10.60;;;16.90;99.90;;;;;;5015276;28;20045;-60
2023/06/24 01:45:27;;;;;;;12.00;10.45;;;16.80;99.90;;;;;;5008860;28;20400;-60
2023/06/24 01:48:01;;;;;;;11.30;10.20;;;16.80;99.90;;;;;;5008419;28;20037;-59
2023/06/24 01:50:32;;;;;;;13.13;11.75;;;16.80;99.90;;;;;;5007049;28;20042;-61
2023/06/24 01:52:58;;;;;;;13.88;12.38;;;16.80;99.90;;;;;;4997106;28;20575;-59
2023/06/24 01:55:26;;;;;;;17.27;12.90;;;16.80;99.90;;;;;;5007460;28;20115;-61
2023/06/24 01:57:54;;;;;;;13.48;11.32;;;16.80;99.90;;;;;;5016332;28;20117;-60
2023/06/24 02:00:23;;;;;;;16.42;13.07;;;16.70;99.90;;;;;;4995625;28;20464;-61
2023/06/24 02:02:50;;;;;;;13.23;11.52;;;16.70;99.90;;;;;;5015045;28;20037;-58
2023/06/24 02:05:18;;;;;;;16.38;13.25;;;16.60;99.90;;;;;;5000652;28;20132;-60
2023/06/24 02:07:47;;;;;;;12.82;11.07;;;16.60;99.90;;;;;;5016274;28;20060;-61
2023/06/24 02:10:13;;;;;;;15.68;12.52;;;16.60;99.90;;;;;;4977669;28;20076;-61
2023/06/24 02:12:41;;;;;;;16.58;13.10;;;16.60;99.90;;;;;;5011196;28;20038;-61
2023/06/24 02:15:08;;;;;;;16.00;12.32;;;16.60;99.90;;;;;;5009831;28;20064;-60
2023/06/24 02:17:34;;;;;;;14.98;12.20;;;16.60;99.90;;;;;;4993705;28;20073;-60
2023/06/24 02:20:01;;;;;;;14.57;12.23;;;16.50;99.90;;;;;;4999379;28;20045;-61
2023/06/24 02:22:28;;;;;;;14.32;11.82;;;16.50;99.90;;;;;;4991668;28;20057;-59
2023/06/24 02:24:54;;;;;;;14.82;12.65;;;16.50;99.90;;;;;;5007620;28;20480;-60
2023/06/24 02:27:21;;;;;;;14.35;12.20;;;16.60;99.90;;;;;;5014281;28;20038;-61
2023/06/24 02:29:48;;;;;;;13.18;10.90;;;16.50;99.90;;;;;;5011937;28;20088;-60
2023/06/24 02:32:13;;;;;;;15.48;11.88;;;16.50;99.90;;;;;;5009055;28;20045;-60
2023/06/24 02:34:40;;;;;;;14.93;11.77;;;16.50;99.90;;;;;;4979206;28;20046;-61
2023/06/24 02:37:05;;;;;;;15.80;12.68;;;16.50;99.90;;;;;;5007947;28;20448;-61
2023/06/24 02:39:31;;;;;;;12.02;10.20;;;16.50;99.90;;;;;;4996869;28;20042;-60
2023/06/24 02:41:57;;;;;;;10.38;8.95;;;16.40;99.90;;;;;;5016098;28;20029;-59
2023/06/24 02:44:23;;;;;;;14.50;12.38;;;16.50;99.90;;;;;;5018359;28;20046;-60
2023/06/24 02:46:50;;;;;;;11.63;9.93;;;16.60;99.90;;;;;;4992924;28;20180;-59
2023/06/24 02:49:18;;;;;;;12.75;9.23;;;16.70;99.90;;;;;;5010030;28;20400;-61
2023/06/24 02:51:44;;;;;;;14.68;12.43;;;16.70;99.90;;;;;;5013802;28;20105;-61
2023/06/24 02:54:12;;;;;;;16.10;12.57;;;16.70;99.90;;;;;;5010103;28;20531;-60
2023/06/24 02:56:41;;;;;;;14.45;11.00;;;16.60;99.90;;;;;;5010896;28;20753;-60
2023/06/24 02:59:07;;;;;;;16.13;12.70;;;16.50;99.90;;;;;;4997026;28;20701;-59
2023/06/24 03:01:38;;;;;;;15.30;11.13;;;16.40;99.90;;;;;;4995528;28;20135;-58
2023/06/24 03:04:04;;;;;;;15.23;11.98;;;16.40;99.90;;;;;;5012198;28;20485;-59
2023/06/24 03:06:31;;;;;;;14.70;10.65;;;16.40;99.90;;;;;;5005500;28;20045;-60
2023/06/24 03:08:57;;;;;;;13.35;11.95;;;16.40;99.90;;;;;;5008855;28;20041;-59
2023/06/24 03:11:23;;;;;;;13.85;11.45;;;16.40;99.90;;;;;;4989471;28;20049;-59
2023/06/24 03:13:49;;;;;;;19.45;13.15;;;16.50;99.90;;;;;;5012335;28;20038;-59
2023/06/24 03:16:15;;;;;;;15.90;11.52;;;16.40;99.90;;;;;;5010982;28;20042;-59
2023/06/24 03:18:42;;;;;;;15.73;12.52;;;16.40;99.90;;;;;;5001158;28;20037;-59
2023/06/24 03:21:08;;;;;;;14.18;11.63;;;16.30;99.90;;;;;;5000882;28;20072;-60
2023/06/24 03:23:35;;;;;;;15.05;11.75;;;16.30;99.90;;;;;;4994293;28;20037;-59
2023/06/24 03:26:02;;;;;;;12.63;11.23;;;16.30;99.90;;;;;;5010775;28;20386;-58
2023/06/24 03:28:30;;;;;;;16.33;12.15;;;16.30;99.90;;;;;;5011571;28;20053;-60
2023/06/24 03:30:56;;;;;;;14.55;11.45;;;16.30;99.90;;;;;;5001391;28;20046;-60
2023/06/24 03:33:21;;;;;;;14.55;12.30;;;16.30;99.90;;;;;;4993860;28;20033;-60
2023/06/24 03:35:47;;;;;;;14.40;11.85;;;16.20;99.90;;;;;;4991814;28;20104;-60
2023/06/24 03:38:13;;;;;;;12.00;10.75;;;16.20;99.90;;;;;;4988709;28;20045;-59
2023/06/24 03:40:39;;;;;;;13.15;11.05;;;16.20;99.90;;;;;;5019318;28;20045;-60
2023/06/24 03:43:04;;;;;;;12.55;10.75;;;16.30;99.90;;;;;;4990958;28;20489;-59
2023/06/24 03:45:31;;;;;;;11.82;10.60;;;16.30;99.90;;;;;;5011265;28;20046;-58
2023/06/24 03:47:57;;;;;;;14.98;10.88;;;16.30;99.90;;;;;;4995186;28;20049;-60
2023/06/24 03:50:23;;;;;;;12.32;10.48;;;16.40;99.90;;;;;;4998479;28;20089;-59
2023/06/24 03:52:48;;;;;;;13.13;11.18;;;16.40;99.90;;;;;;5002261;28;20038;-59
2023/06/24 03:55:14;;;;;;;12.18;10.82;;;16.40;99.90;;;;;;5009688;28;20072;-59
2023/06/24 03:57:40;;;;;;;20.77;12.43;;;16.40;99.90;;;;;;4994145;28;20092;-58
2023/06/24 04:00:16;;;;;;;12.77;10.95;;;16.40;99.90;;;;;;4997477;28;20092;-60
2023/06/24 04:02:45;;;;;;;13.93;11.18;;;16.50;99.90;;;;;;4993454;28;20493;-59
2023/06/24 04:05:10;;;;;;;13.77;11.25;;;16.50;99.90;;;;;;5011765;28;20726;-59
2023/06/24 04:07:36;;;;;;;13.52;11.32;;;16.50;99.90;;;;;;5010993;28;20125;-59
2023/06/24 04:10:10;;;;;;;14.52;11.65;;;16.60;99.90;;;;;;4998069;28;20050;-58
2023/06/24 04:12:36;;;;;;;12.50;10.80;;;16.60;99.90;;;;;;5015177;28;20034;-59
2023/06/24 04:15:05;;;;;;;11.88;10.00;;;16.60;99.90;;;;;;4998023;28;20045;-60
2023/06/24 04:17:31;;;;;;;14.10;12.18;;;16.60;99.90;;;;;;4993860;28;20045;-59
2023/06/24 04:19:58;;;;;;;13.27;11.93;;;16.60;99.90;;;;;;5011251;28;20381;-60
2023/06/24 04:22:25;;;;;;;13.73;12.18;;;16.70;99.90;;;;;;4995635;28;20069;-60
2023/06/24 04:24:51;;;;;;;12.82;11.13;;;16.70;99.90;;;;;;5013559;28;20042;-60
2023/06/24 04:27:16;;;;;;;12.32;10.82;;;16.70;99.90;;;;;;4989551;28;20060;-59
2023/06/24 04:29:42;;;;;;;17.23;11.70;;;16.80;99.90;;;;;;4997351;28;20095;-59
2023/06/24 04:32:08;;;;;;;14.95;12.35;;;16.80;99.90;;;;;;5003543;28;20042;-60
2023/06/24 04:34:34;;;;;;;15.23;12.20;;;16.80;99.90;;;;;;5011126;28;20489;-60
2023/06/24 04:36:59;;;;;;;14.52;12.05;;;16.90;99.90;;;;;;4993905;28;20038;-59
2023/06/24 04:39:25;;;;;;;15.25;12.38;;;16.90;99.90;;;;;;4963776;28;20046;-59
2023/06/24 04:41:51;;;;;;;14.88;12.23;;;16.90;99.90;;;;;;4994798;28;20116;-59
2023/06/24 04:44:17;;;;;;;14.98;13.38;;;17.00;99.90;;;;;;4997137;28;20049;-59
2023/06/24 04:46:42;;;;;;;15.82;12.07;;;16.90;99.90;;;;;;4988956;28;20067;-59
2023/06/24 04:49:08;;;;;;;14.93;12.80;;;17.00;99.90;;;;;;4996150;28;20049;-59
2023/06/24 04:51:35;;;;;;;15.48;12.45;;;17.00;99.90;;;;;;5006828;28;20053;-59
2023/06/24 04:54:01;;;;;;;16.27;12.48;;;17.00;99.90;;;;;;5031414;28;20081;-59
2023/06/24 04:56:28;;;;;;;15.65;12.57;;;17.10;99.90;;;;;;5002294;28;20583;-59
2023/06/24 04:58:53;;;;;;;16.40;12.65;;;17.10;99.90;;;;;;5010118;28;20734;-59
2023/06/24 05:01:19;;;;;;;16.85;13.35;;;17.10;99.90;;;;;;4979633;28;20046;-60
2023/06/24 05:03:45;;;;;;;14.90;13.10;;;17.20;99.90;;;;;;4999052;28;20046;-60
2023/06/24 05:06:10;;;;;;;17.75;12.43;;;17.20;99.90;;;;;;4994159;28;20073;-60
2023/06/24 05:08:36;;;;;;;15.25;13.48;;;17.30;99.90;;;;;;4995156;28;20138;-59
2023/06/24 05:11:02;;;;;;;16.88;13.07;;;17.30;99.90;;;;;;5013511;28;20445;-57
2023/06/24 05:13:28;;;;;;;16.25;13.05;;;17.40;99.90;;;;;;4996971;28;20045;-59
2023/06/24 05:15:53;;;;;;;15.27;13.65;;;17.50;99.90;;;;;;4994189;28;20069;-60
2023/06/24 05:18:19;;;;;;;17.08;13.50;;;17.50;99.90;;;;;;5018554;28;20037;-60
2023/06/24 05:20:45;;;;;;;18.60;13.82;;;17.50;99.90;;;;;;4987907;28;20114;-59
2023/06/24 05:23:11;;;;;;;15.00;11.77;;;17.60;99.90;;;;;;5011422;28;20054;-59
2023/06/24 05:25:36;;;;;;;16.25;13.60;;;17.60;99.90;;;;;;5010237;28;20040;-60
2023/06/24 05:28:02;;;;;;;15.80;12.90;;;17.80;99.90;;;;;;4993093;28;20480;-59
2023/06/24 05:30:28;;;;;;;17.48;13.65;;;17.90;99.90;;;;;;4991589;28;20040;-59
2023/06/24 05:32:54;;;;;;;15.10;12.27;;;17.90;99.90;;;;;;4992426;28;20042;-59
2023/06/24 05:35:19;;;;;;;16.88;13.35;;;18.00;99.90;;;;;;5010810;28;20062;-60
2023/06/24 05:37:45;;;;;;;15.65;12.77;;;18.10;99.90;;;;;;4980513;28;20421;-59
2023/06/24 05:40:12;;;;;;;15.88;12.48;;;18.20;99.90;;;;;;4990596;28;20046;-60
2023/06/24 05:42:38;;;;;;;13.45;12.05;;;18.30;99.90;;;;;;5017004;28;20121;-60
2023/06/24 05:45:06;;;;;;;13.88;12.48;;;18.40;99.90;;;;;;5009141;28;20112;-60
2023/06/24 05:47:32;;;;;;;16.23;13.02;;;18.50;99.90;;;;;;4978566;28;20049;-60
2023/06/24 05:49:58;;;;;;;15.52;12.23;;;18.70;99.90;;;;;;5010859;28;20073;-60
2023/06/24 05:52:24;;;;;;;15.20;12.52;;;18.80;99.90;;;;;;5019282;28;20135;-60
2023/06/24 05:54:50;;;;;;;16.40;13.38;;;19.00;99.90;;;;;;5017878;28;20033;-60
2023/06/24 05:57:16;;;;;;;17.52;13.27;;;19.10;99.90;;;;;;5011258;28;20053;-60
2023/06/24 05:59:41;;;;;;;16.23;12.57;;;19.20;99.90;;;;;;4984527;28;20046;-60
2023/06/24 06:02:07;;;;;;;16.73;12.55;;;19.30;99.90;;;;;;5008213;28;20061;-58
2023/06/24 06:04:33;;;;;;;13.80;12.27;;;19.30;99.90;;;;;;5009406;28;20069;-59
2023/06/24 06:06:59;;;;;;;14.88;12.05;;;19.40;99.90;;;;;;4992208;28;20056;-59
2023/06/24 06:09:24;;;;;;;14.32;12.25;;;19.40;99.90;;;;;;5013747;28;20048;-60
2023/06/24 06:11:50;;;;;;;15.68;12.50;;;19.50;99.90;;;;;;5018208;28;20847;-59
2023/06/24 06:14:16;;;;;;;14.93;13.27;;;19.60;99.90;;;;;;4985428;28;20065;-59
2023/06/24 06:16:41;;;;;;;16.13;13.13;;;19.60;99.90;;;;;;5017758;28;20591;-60
2023/06/24 06:19:07;;;;;;;16.75;12.65;;;19.70;99.90;;;;;;5006748;28;20041;-61
2023/06/24 06:21:33;;;;;;;14.18;11.65;;;19.70;99.90;;;;;;5006959;28;20072;-60
2023/06/24 06:23:58;;;;;;;16.70;13.70;;;19.70;99.90;;;;;;4993829;28;20429;-59
2023/06/24 06:26:24;;;;;;;16.13;13.00;;;19.80;99.90;;;;;;5009877;28;20116;-60
2023/06/24 06:28:51;;;;;;;15.60;12.55;;;19.90;99.90;;;;;;5007011;28;20232;-58
2023/06/24 06:31:16;;;;;;;14.52;13.02;;;19.90;99.90;;;;;;4991576;28;20049;-60
2023/06/24 06:33:43;;;;;;;17.17;13.63;;;20.00;99.90;;;;;;4991828;28;20120;-59
2023/06/24 06:36:09;;;;;;;16.65;12.82;;;20.00;99.90;;;;;;4973131;28;20037;-59
2023/06/24 06:38:35;;;;;;;19.23;13.45;;;20.10;99.90;;;;;;4992858;28;20038;-61
2023/06/24 06:41:01;;;;;;;14.43;12.50;;;20.20;99.90;;;;;;4968728;28;20136;-68
2023/06/24 06:43:26;;;;;;;16.27;13.75;;;20.30;99.90;;;;;;4992870;28;20045;-61
2023/06/24 06:45:52;;;;;;;15.23;13.65;;;20.30;99.90;;;;;;5002906;28;20096;-61
2023/06/24 06:48:18;;;;;;;16.13;13.02;;;20.50;99.90;;;;;;5005009;28;20046;-61
2023/06/24 06:50:45;;;;;;;14.68;12.35;;;20.50;99.90;;;;;;4990604;28;20045;-61
2023/06/24 06:53:11;;;;;;;15.38;13.25;;;20.70;99.90;;;;;;5005014;28;20452;-61
2023/06/24 06:55:39;;;;;;;18.15;13.82;;;20.70;99.90;;;;;;5004842;28;20115;-61
2023/06/24 06:58:05;;;;;;;14.73;12.90;;;20.80;99.90;;;;;;5006233;28;20038;-61
2023/06/24 07:00:31;;;;;;;15.80;12.98;;;20.90;99.90;;;;;;5007947;28;20041;-57
2023/06/24 07:02:56;;;;;;;19.63;12.25;;;20.90;99.90;;;;;;4995767;28;20034;-60
2023/06/24 07:05:22;;;;;;;14.88;12.57;;;21.00;99.90;;;;;;4987691;28;20076;-60
2023/06/24 07:07:49;;;;;;;13.88;12.48;;;21.10;99.90;;;;;;4948539;28;20045;-60
2023/06/24 07:10:16;;;;;;;16.17;12.43;;;21.10;99.90;;;;;;4999889;28;20049;-64
2023/06/24 07:12:42;;;;;;;15.25;13.50;;;21.20;99.90;;;;;;4971931;28;20044;-60
2023/06/24 07:15:09;;;;;;;17.73;12.88;;;21.20;99.90;;;;;;5002413;28;20413;-60
2023/06/24 07:17:34;;;;;;;14.57;12.90;;;21.30;99.90;;;;;;4988800;28;20042;-60
2023/06/24 07:20:00;;;;;;;17.08;12.90;;;21.30;99.90;;;;;;5005777;28;20042;-61
2023/06/24 07:22:26;;;;;;;15.57;12.98;;;21.30;99.90;;;;;;4995629;28;20046;-61
2023/06/24 07:24:51;;;;;;;16.23;12.80;;;21.40;99.90;;;;;;5010222;28;20528;-60
2023/06/24 07:27:17;;;;;;;15.93;13.73;;;21.40;99.90;;;;;;5010148;28;20137;-60
2023/06/24 07:29:43;;;;;;;14.43;12.13;;;21.40;99.90;;;;;;4997218;28;20096;-60
2023/06/24 07:32:08;;;;;;;16.90;12.88;;;21.50;99.90;;;;;;5000582;28;20046;-60
2023/06/24 07:34:37;;;;;;;13.68;12.30;;;21.50;99.90;;;;;;4966470;28;20044;-60
2023/06/24 07:37:03;;;;;;;16.50;13.27;;;21.50;99.90;;;;;;4991387;28;20073;-60
2023/06/24 07:39:29;;;;;;;15.40;12.48;;;21.50;99.90;;;;;;5012149;28;20046;-61
2023/06/24 07:41:54;;;;;;;15.35;12.75;;;21.60;99.90;;;;;;5013148;28;20046;-60
2023/06/24 07:44:20;;;;;;;18.85;13.43;;;21.60;99.90;;;;;;4995368;28;20054;-59
2023/06/24 07:46:46;;;;;;;14.57;12.95;;;21.70;99.90;;;;;;5012131;28;20420;-60
2023/06/24 07:49:12;;;;;;;18.08;13.48;;;21.70;99.90;;;;;;5004287;28;20099;-61
2023/06/24 07:51:37;;;;;;;15.00;12.95;;;21.80;99.90;;;;;;5022775;28;20049;-59
2023/06/24 07:54:03;;;;;;;15.73;13.32;;;21.90;99.90;;;;;;5015370;28;20041;-59
2023/06/24 07:56:29;;;;;;;14.98;13.18;;;21.90;99.90;;;;;;5027683;28;20077;-59
2023/06/24 07:58:55;;;;;;;13.80;12.32;;;22.00;99.90;;;;;;5016634;28;20488;-60
2023/06/24 08:01:20;;;;;;;15.55;11.80;;;22.00;99.90;;;;;;5009658;28;20053;-59
2023/06/24 08:03:46;;;;;;;14.52;11.93;;;22.20;99.90;;;;;;4999569;28;20065;-61
2023/06/24 08:06:12;;;;;;;15.05;12.60;;;22.20;99.90;;;;;;5012721;28;20377;-61
2023/06/24 08:08:37;;;;;;;13.95;11.52;;;22.30;99.90;;;;;;5011757;28;20045;-60
2023/06/24 08:11:03;;;;;;;14.52;11.10;;;22.40;99.90;;;;;;4994217;28;20058;-60
2023/06/24 08:13:29;;;;;;;16.50;11.43;;;22.50;99.90;;;;;;5006834;28;20077;-60
2023/06/24 08:15:55;;;;;;;13.73;10.60;;;22.60;99.90;;;;;;5006729;28;20042;-61
2023/06/24 08:18:20;;;;;;;12.00;10.20;;;22.60;99.90;;;;;;5015395;28;20488;-60
2023/06/24 08:20:46;;;;;;;13.32;10.70;;;22.80;99.90;;;;;;4996393;28;20165;-61
2023/06/24 08:23:12;;;;;;;12.98;11.60;;;22.90;99.90;;;;;;4993065;28;20053;-60
2023/06/24 08:25:38;;;;;;;19.08;11.20;;;23.00;99.90;;;;;;4977998;28;20108;-59
2023/06/24 08:28:03;;;;;;;16.95;11.32;;;23.00;99.90;;;;;;4991292;28;20037;-61
2023/06/24 08:30:29;;;;;;;15.18;12.77;;;23.20;99.90;;;;;;5001025;28;20178;-61
2023/06/24 08:32:56;;;;;;;16.13;11.52;;;23.20;99.90;;;;;;5007686;28;20116;-60
2023/06/24 08:35:21;;;;;;;13.05;11.50;;;23.40;99.90;;;;;;5012705;28;20038;-61
2023/06/24 08:37:47;;;;;;;15.10;11.55;;;23.50;99.90;;;;;;5001656;28;20039;-59
2023/06/24 08:40:13;;;;;;;12.35;11.02;;;23.60;99.90;;;;;;4993674;28;20052;-60
2023/06/24 08:42:38;;;;;;;14.32;11.30;;;23.70;99.90;;;;;;4991090;28;20132;-59
2023/06/24 08:45:05;;;;;;;12.05;10.32;;;23.80;99.90;;;;;;5003693;28;20448;-60
2023/06/24 08:47:30;;;;;;;12.80;9.70;;;23.90;99.90;;;;;;4992172;28;20041;-59
2023/06/24 08:50:08;;;;;;;9.48;8.38;;;23.90;99.90;;;;;;4996041;28;20045;-59
2023/06/24 08:52:36;;;;;;;13.48;9.18;;;24.10;99.90;;;;;;5009478;28;20056;-59
2023/06/24 08:55:04;;;;;;;11.70;8.02;;;24.10;99.90;;;;;;4993325;28;20389;-60
2023/06/24 08:57:30;;;;;;;10.20;7.72;;;24.20;99.90;;;;;;5017988;28;20052;-61
2023/06/24 08:59:56;;;;;;;8.65;7.03;;;24.40;99.90;;;;;;5012442;28;20030;-61
2023/06/24 09:02:22;;;;;;;7.60;6.05;;;24.50;99.90;;;;;;5014238;28;20105;-61
2023/06/24 09:04:49;;;;;;;7.95;6.40;;;24.30;99.90;;;;;;4996191;28;20049;-61
2023/06/24 09:07:27;;;;;;;7.32;5.88;;;24.30;99.90;;;;;;4995576;28;20049;-61
2023/06/24 09:09:53;;;;;;;7.30;5.90;;;24.30;99.90;;;;;;5006892;28;20485;-61
2023/06/24 09:12:19;;;;;;;10.50;6.32;;;24.30;99.90;;;;;;4993890;28;20057;-61
2023/06/24 09:14:51;;;;;;;10.00;6.35;;;24.40;99.90;;;;;;5014270;28;20034;-61
2023/06/24 09:17:17;;;;;;;8.10;6.18;;;24.50;99.90;;;;;;4991096;28;20093;-61
2023/06/24 09:19:43;;;;;;;7.43;5.47;;;24.70;99.80;;;;;;4999685;28;20044;-61
2023/06/24 09:22:17;;;;;;;10.13;6.10;;;24.90;99.70;;;;;;5011590;28;20033;-61
2023/06/24 09:24:47;;;;;;;9.93;6.18;;;25.10;99.50;;;;;;5039424;28;20056;-61
2023/06/24 09:27:14;;;;;;;12.55;6.63;;;25.30;99.40;;;;;;5017068;28;20045;-61
2023/06/24 09:29:41;;;;;;;11.80;6.78;;;25.50;99.30;;;;;;4995435;28;20037;-61
2023/06/24 09:32:07;;;;;;;9.50;6.43;;;25.60;98.70;;;;;;4989176;28;20054;-61
2023/06/24 09:34:34;;;;;;;8.45;5.97;;;25.70;97.90;;;;;;4996668;28;20030;-61
2023/06/24 09:37:00;;;;;;;8.05;6.07;;;25.70;97.40;;;;;;4991291;28;20038;-61
2023/06/24 09:39:34;;;;;;;10.07;6.65;;;25.70;97.00;;;;;;5014852;28;20096;-61
2023/06/24 09:42:01;;;;;;;9.25;6.40;;;25.90;97.20;;;;;;5009534;28;20485;-61
2023/06/24 09:44:28;;;;;;;8.23;5.53;;;26.10;97.00;;;;;;4994771;28;20077;-61
2023/06/24 09:46:55;;;;;;;10.23;5.88;;;26.20;96.70;;;;;;5014175;28;20049;-61
2023/06/24 09:49:22;;;;;;;7.63;5.22;;;26.30;96.90;;;;;;5012453;28;20378;-61
2023/06/24 09:51:55;;;;;;;8.25;6.35;;;26.40;96.20;;;;;;5014321;28;20063;-61
2023/06/24 09:54:24;;;;;;;9.45;5.20;;;26.50;96.00;;;;;;5002377;28;20044;-61
2023/06/24 09:56:50;;;;;;;7.38;5.70;;;26.40;95.60;;;;;;4994759;28;20049;-62
2023/06/24 09:59:24;;;;;;;10.13;6.32;;;26.40;95.20;;;;;;4979915;28;20124;-62
2023/06/24 10:01:53;;;;;;;9.45;6.22;;;26.50;95.10;;;;;;4982002;28;20057;-61
2023/06/24 10:04:21;;;;;;;9.55;6.60;;;26.60;95.00;;;;;;4999106;28;20053;-62
2023/06/24 10:06:48;;;;;;;10.95;6.20;;;26.70;94.60;;;;;;4994397;28;20524;-61
2023/06/24 10:09:16;;;;;;;17.40;6.60;;;26.80;94.60;;;;;;5029372;28;20041;-61
2023/06/24 10:11:44;;;;;;;9.35;5.25;;;26.70;93.50;;;;;;4991505;28;20037;-61
2023/06/24 10:14:10;;;;;;;7.07;5.47;;;26.80;94.30;;;;;;5010381;28;20065;-61
2023/06/24 10:16:35;;;;;;;8.70;5.55;;;27.00;94.40;;;;;;5012120;28;20080;-62
2023/06/24 10:19:03;;;;;;;8.07;5.82;;;27.10;94.20;;;;;;4992412;28;20757;-61
2023/06/24 10:21:50;;;;;;;8.45;5.88;;;27.30;94.10;;;;;;4996954;28;20045;-61
2023/06/24 10:24:30;;;;;;;8.50;6.28;;;27.20;93.20;;;;;;4980361;28;20128;-63
2023/06/24 10:27:01;;;;;;;7.82;5.63;;;27.30;93.00;;;;;;4991555;28;20432;-63
2023/06/24 10:29:38;;;;;;;7.03;5.47;;;27.30;93.80;;;;;;4998655;28;20076;-62
2023/06/24 10:32:10;;;;;;;8.48;5.00;;;27.30;93.50;;;;;;5003965;28;20053;-62
2023/06/24 10:34:55;;;;;;;8.80;5.72;;;27.40;93.50;;;;;;5005417;28;20073;-63
2023/06/24 10:37:24;;;;;;;10.15;6.72;;;27.50;92.90;;;;;;5005131;28;20038;-62
2023/06/24 10:39:54;;;;;;;7.35;5.10;;;27.50;92.80;;;;;;4986367;28;20147;-61
2023/06/24 10:42:41;;;;;;;7.47;4.53;;;27.60;93.00;;;;;;5004895;28;20109;-62
2023/06/24 10:45:10;;;;;;;7.18;5.38;;;27.70;92.30;;;;;;5005628;28;20501;-61
2023/06/24 10:47:40;;;;;;;7.60;5.57;;;27.70;91.80;;;;;;5004271;28;20038;-61
2023/06/24 10:50:08;;;;;;;7.20;4.78;;;27.90;91.60;;;;;;4983606;28;20046;-61
2023/06/24 10:52:38;;;;;;;9.60;5.90;;;28.10;91.70;;;;;;5003929;28;20402;-61
2023/06/24 10:55:05;;;;;;;7.85;5.68;;;28.10;91.30;;;;;;5003291;28;20045;-61
2023/06/24 10:57:30;;;;;;;8.30;6.00;;;28.20;91.40;;;;;;5008714;28;20046;-61
2023/06/24 10:59:57;;;;;;;7.55;5.25;;;28.10;91.40;;;;;;4991863;28;20177;-62
2023/06/24 11:02:27;;;;;;;10.25;6.22;;;28.10;91.10;;;;;;4987072;28;20045;-66
2023/06/24 11:04:53;;;;;;;8.57;5.28;;;27.80;91.00;;;;;;4982562;28;20438;-62
2023/06/24 11:07:21;;;;;;;8.77;5.85;;;27.70;91.60;;;;;;5006056;28;20069;-62
2023/06/24 11:10:04;;;;;;;9.25;5.75;;;27.60;91.60;;;;;;4986041;28;20042;-62
2023/06/24 11:12:32;;;;;;;5.53;4.40;;;27.70;91.80;;;;;;5000845;28;20092;-62
2023/06/24 11:15:00;;;;;;;7.38;4.25;;;27.90;91.30;;;;;;5005073;28;20575;-61
2023/06/24 11:17:26;;;;;;;5.88;4.35;;;27.70;90.70;;;;;;4998982;28;20033;-63
2023/06/24 11:19:56;;;;;;;5.10;3.97;;;27.50;90.30;;;;;;5004133;28;20057;-62
2023/06/24 11:22:23;;;;;;;5.93;4.65;;;27.50;89.90;;;;;;5006759;28;20045;-62
2023/06/24 11:24:49;;;;;;;5.93;4.00;;;27.40;88.60;;;;;;5006278;28;20046;-62
2023/06/24 11:27:15;;;;;;;7.82;4.82;;;27.40;88.80;;;;;;4973667;28;20519;-61
2023/06/24 11:29:41;;;;;;;6.25;4.75;;;27.50;90.10;;;;;;5006417;28;20117;-62
2023/06/24 11:32:08;;;;;;;8.98;5.22;;;27.60;90.30;;;;;;4987482;28;20080;-62
2023/06/24 11:34:38;;;;;;;6.38;4.28;;;27.60;90.30;;;;;;5010969;28;20048;-59
2023/06/24 11:37:17;;;;;;;5.95;4.70;;;27.80;90.10;;;;;;4989973;28;20583;-62
2023/06/24 11:39:44;;;;;;;8.60;5.65;;;27.80;90.10;;;;;;5006368;28;20049;-61
2023/06/24 11:42:10;;;;;;;7.25;4.85;;;27.60;89.90;;;;;;4989241;28;20092;-62
2023/06/24 11:44:42;;;;;;;6.70;4.43;;;27.80;90.50;;;;;;5008425;28;20089;-63
2023/06/24 11:47:09;;;;;;;6.82;4.22;;;27.90;90.40;;;;;;4995568;28;20073;-62
2023/06/24 11:49:57;;;;;;;4.82;3.40;;;28.00;90.40;;;;;;5007156;28;20065;-62
2023/06/24 11:52:43;;;;;;;6.47;3.40;;;27.50;88.30;;;;;;4992045;28;20048;-61
2023/06/24 11:55:20;;;;;;;5.57;3.28;;;27.50;90.50;;;;;;4991026;28;20053;-62
2023/06/24 11:58:02;;;;;;;6.20;3.38;;;27.70;90.50;;;;;;5006856;28;20038;-61
2023/06/24 12:00:34;;;;;;;4.60;3.60;;;27.70;89.70;;;;;;5007280;28;20117;-62
2023/06/24 12:03:02;;;;;;;10.13;3.30;;;27.60;89.40;;;;;;5009373;28;20053;-62
2023/06/24 12:05:30;;;;;;;4.07;2.80;;;27.80;89.70;;;;;;4985932;28;20046;-61
2023/06/24 12:08:04;;;;;;;4.30;2.90;;;27.70;90.00;;;;;;4987604;28;20100;-62
2023/06/24 12:10:33;;;;;;;4.78;3.33;;;27.40;89.00;;;;;;5006044;28;20069;-62
2023/06/24 12:13:00;;;;;;;4.70;2.92;;;27.10;90.20;;;;;;5011901;28;20044;-61
2023/06/24 12:15:26;;;;;;;6.20;3.22;;;26.90;90.40;;;;;;5008363;28;20137;-61
2023/06/24 12:17:52;;;;;;;5.05;3.33;;;27.20;90.50;;;;;;5007140;28;20078;-62
2023/06/24 12:20:18;;;;;;;5.57;3.50;;;27.40;90.50;;;;;;5006585;28;20076;-62
2023/06/24 12:22:45;;;;;;;6.28;4.18;;;27.60;90.40;;;;;;5007559;28;20045;-59
2023/06/24 12:25:11;;;;;;;4.63;3.35;;;27.30;90.20;;;;;;4978537;28;20045;-61
2023/06/24 12:27:38;;;;;;;4.82;3.75;;;27.20;90.70;;;;;;5013960;28;20043;-61
2023/06/24 12:30:04;;;;;;;7.03;3.33;;;26.80;89.80;;;;;;4993728;28;20061;-62
2023/06/24 12:32:30;;;;;;;5.03;2.85;;;26.80;90.80;;;;;;5011118;28;20513;-62
2023/06/24 12:34:56;;;;;;;3.95;2.80;;;27.00;90.80;;;;;;5014842;28;20030;-61
2023/06/24 12:37:22;;;;;;;5.07;2.60;;;27.30;90.90;;;;;;5009950;28;20049;-62